Time;durP1;ratioP1;P1;durP2;ratioP2;P2;SDS_P1;SDS_P2;PMS_P1;PMS_P2;Temp;Humidity;BMP_temperature;BMP_pressure;BME280_temperature;BME280_humidity;BME280_pressure;Samples;Min_cycle;Max_cycle;Signal;HPM_P1;HPM_P2
2023/01/31 00:21:20;;;;;;;;;;;3.40;99.90;;;;;;6278322;22;20016;-96
2023/01/31 00:23:59;;;;;;;;;;;3.30;99.90;;;;;;6250846;22;20005;-96
2023/01/31 00:26:31;;;;;;;;;;;2.40;99.90;;;;;;6250255;22;19920;-96
2023/01/31 00:28:57;;;;;;;;;;;3.40;99.90;;;;;;6250130;22;19927;-96
2023/01/31 00:31:36;;;;;;;;;;;4.30;99.90;;;;;;6276142;22;20371;-96
2023/01/31 00:34:08;;;;;;;;;;;3.30;99.90;;;;;;6250833;22;19973;-96
2023/01/31 00:36:58;;;;;;;;;;;4.50;99.90;;;;;;6272108;22;20404;-96
2023/01/31 00:39:48;;;;;;;;;;;3.40;99.90;;;;;;6248771;22;19926;-96
2023/01/31 00:42:33;;;;;;;;;;;3.10;99.90;;;;;;6250680;22;19923;-95
2023/01/31 00:45:14;;;;;;;;;;;3.50;99.90;;;;;;6226451;22;19994;-96
2023/01/31 00:50:42;;;;;;;;;;;4.20;99.90;;;;;;6277136;22;19966;-96
2023/01/31 00:53:37;;;;;;;;;;;4.70;99.90;;;;;;6251463;22;19929;-96
2023/01/31 00:56:28;;;;;;;;;;;3.50;99.90;;;;;;6276834;22;19913;-96
2023/01/31 00:59:17;;;;;;;;;;;2.60;99.90;;;;;;6273659;22;20306;-96
2023/01/31 01:01:55;;;;;;;;;;;3.40;99.90;;;;;;6250170;22;19980;-96
2023/01/31 01:04:42;;;;;;;;;;;3.40;99.90;;;;;;6274387;22;20343;-96
2023/01/31 01:07:41;;;;;;;;;;;4.10;99.90;;;;;;6250876;22;20354;-96
2023/01/31 01:10:28;;;;;;;;;;;3.30;99.90;;;;;;6275963;22;19919;-96
2023/01/31 01:13:15;;;;;;;;;;;3.20;99.90;;;;;;6222262;22;20320;-96
2023/01/31 01:16:05;;;;;;;;;;;3.30;99.90;;;;;;6252339;22;19959;-96
2023/01/31 01:19:02;;;;;;;;;;;3.20;99.90;;;;;;6275370;22;20006;-96
2023/01/31 01:21:37;;;;;;;;;;;4.00;99.90;;;;;;6248617;22;20351;-96
2023/01/31 01:24:16;;;;;;;;;;;3.20;99.90;;;;;;6248563;22;19985;-96
2023/01/31 01:29:30;;;;;;;;;;;3.00;99.90;;;;;;6274794;22;19915;-96
2023/01/31 01:32:26;;;;;;;;;;;3.00;99.90;;;;;;6253663;22;20029;-96
2023/01/31 01:35:16;;;;;;;;;;;2.90;99.90;;;;;;6249810;22;19930;-96
2023/01/31 01:37:48;;;;;;;;;;;3.90;99.90;;;;;;6248621;22;19923;-96
2023/01/31 01:43:26;;;;;;;;;;;3.20;99.90;;;;;;6275127;22;19931;-96
2023/01/31 01:45:51;;;;;;;;;;;3.20;99.90;;;;;;6248967;22;19923;-96
2023/01/31 01:48:39;;;;;;;;;;;2.80;99.90;;;;;;6251797;22;20440;-96
2023/01/31 01:51:53;;;;;;;;;;;2.90;99.90;;;;;;6230275;22;19969;-96
2023/01/31 01:54:30;;;;;;;;;;;3.00;99.90;;;;;;6273437;22;19926;-96
2023/01/31 01:57:37;;;;;;;;;;;3.10;99.90;;;;;;6251003;22;20260;-96
2023/01/31 02:03:36;;;;;;;;;;;3.10;99.90;;;;;;6151062;22;20002;-96
2023/01/31 02:06:42;;;;;;;;;;;3.10;99.90;;;;;;6249306;22;19923;-96
2023/01/31 02:15:57;;;;;;;;;;;2.90;99.90;;;;;;6187853;23;20288;-96
2023/01/31 02:18:31;;;;;;;;;;;3.10;99.90;;;;;;6212056;23;19955;-96
2023/01/31 02:21:22;;;;;;;;;;;2.90;99.90;;;;;;6140113;23;19987;-96
2023/01/31 02:24:16;;;;;;;;;;;3.20;99.90;;;;;;6104956;23;19956;-96
2023/01/31 02:30:07;;;;;;;;;;;2.40;99.90;;;;;;6128743;23;19920;-96
2023/01/31 02:32:45;;;;;;;;;;;3.40;99.90;;;;;;6148500;23;19919;-96
2023/01/31 02:35:29;;;;;;;;;;;;;;;;;;;;;
2023/01/31 02:38:28;;;;;;;;;;;3.60;99.90;;;;;;6244319;23;19930;-96
2023/01/31 02:41:08;;;;;;;;;;;3.50;99.90;;;;;;6193681;23;20005;-96
2023/01/31 02:46:56;;;;;;;;;;;2.80;99.90;;;;;;6244687;23;19998;-96
2023/01/31 02:49:43;;;;;;;;;;;3.60;99.90;;;;;;6192174;23;19942;-96
2023/01/31 02:52:44;;;;;;;;;;;3.80;99.90;;;;;;6195226;23;19966;-96
2023/01/31 02:58:26;;;;;;;;;;;3.70;99.90;;;;;;6246097;23;19923;-95
2023/01/31 03:01:02;;;;;;;;;;;3.70;99.90;;;;;;6194924;23;19920;-96
2023/01/31 03:03:43;;;;;;;;;;;4.70;99.90;;;;;;6191806;23;19923;-96
2023/01/31 03:10:07;;;;;;;;;;;3.60;99.90;;;;;;6205673;23;19970;-96
2023/01/31 03:13:13;;;;;;;;;;;3.00;99.90;;;;;;6195107;23;20352;-96
2023/01/31 03:18:55;;;;;;;;;;;3.80;99.90;;;;;;6221087;23;19927;-96
2023/01/31 03:24:54;;;;;;;;;;;3.50;99.90;;;;;;6247047;23;19923;-96
2023/01/31 03:27:42;;;;;;;;;;;3.60;99.90;;;;;;6202692;23;19924;-96
2023/01/31 03:30:45;;;;;;;;;;;;;;;;;;;;;
2023/01/31 03:36:20;;;;;;;;;;;3.50;99.90;;;;;;6219938;23;19920;-96
2023/01/31 03:39:14;;;;;;;;;;;3.50;99.90;;;;;;6182532;23;19971;-96
2023/01/31 03:42:13;;;;;;;;;;;3.60;99.90;;;;;;6186768;23;19959;-96
2023/01/31 03:45:48;;;;;;;;;;;2.60;99.90;;;;;;6196182;23;19926;-96
2023/01/31 03:48:06;;;;;;;;;;;3.50;99.90;;;;;;6204393;23;19945;-96
2023/01/31 03:50:46;;;;;;;;;;;3.40;99.90;;;;;;6183456;23;20391;-96
2023/01/31 03:53:33;;;;;;;;;;;3.50;99.90;;;;;;6195026;23;19920;-96
2023/01/31 03:56:47;;;;;;;;;;;3.50;99.90;;;;;;6187724;23;19962;-96
2023/01/31 03:59:41;;;;;;;;;;;3.60;99.90;;;;;;6164832;23;20260;-96
2023/01/31 04:05:47;;;;;;;;;;;3.60;99.90;;;;;;6153905;23;20351;-96
2023/01/31 04:12:26;;;;;;;;;;;3.60;99.90;;;;;;6182643;23;19930;-96
2023/01/31 04:14:57;;;;;;;;;;;5.20;99.90;;;;;;6194219;23;19931;-96
2023/01/31 04:17:26;;;;;;;;;;;3.60;99.90;;;;;;6195032;23;19927;-96
2023/01/31 04:20:46;;;;;;;;;;;2.90;99.90;;;;;;6224203;23;19977;-96
2023/01/31 04:23:30;;;;;;;;;;;3.70;99.90;;;;;;6169754;22;19930;-96
2023/01/31 04:29:12;;;;;;;;;;;4.00;99.90;;;;;;6206493;22;19920;-96
2023/01/31 04:31:55;;;;;;;;;;;3.40;99.90;;;;;;6217786;23;20351;-96
2023/01/31 04:34:27;;;;;;;;;;;3.80;99.90;;;;;;6245643;22;19927;-96
2023/01/31 04:38:04;;;;;;;;;;;3.20;99.90;;;;;;6276137;22;19923;-96
2023/01/31 04:40:28;;;;;;;;;;;3.50;99.90;;;;;;6257503;22;19958;-96
2023/01/31 04:42:57;;;;;;;;;;;3.80;99.90;;;;;;6249604;22;19982;-96
2023/01/31 04:45:59;;;;;;;;;;;3.40;99.90;;;;;;6267315;22;19957;-96
2023/01/31 04:48:47;;;;;;;;;;;4.80;99.90;;;;;;6249986;22;19924;-96
2023/01/31 04:54:46;;;;;;;;;;;3.50;99.90;;;;;;6277005;22;20255;-96
2023/01/31 04:57:26;;;;;;;;;;;3.80;99.90;;;;;;6271973;22;20251;-96
2023/01/31 05:02:52;;;;;;;;;;;4.20;99.90;;;;;;6276186;22;19970;-96
2023/01/31 05:08:53;;;;;;;;;;;4.30;99.90;;;;;;6126666;23;19991;-96
2023/01/31 05:11:39;;;;;;;;;;;4.60;99.90;;;;;;6187012;23;19943;-96
2023/01/31 05:14:26;;;;;;;;;;;3.60;99.90;;;;;;6241665;22;20001;-96
2023/01/31 05:17:24;;;;;;;;;;;4.40;99.90;;;;;;6275314;22;19923;-96
2023/01/31 05:20:00;;;;;;;;;;;4.50;99.90;;;;;;6275944;22;19923;-96
2023/01/31 05:22:49;;;;;;;;;;;4.50;99.90;;;;;;6249857;22;19995;-96
2023/01/31 05:25:37;;;;;;;;;;;4.20;99.90;;;;;;6173071;22;19926;-96
2023/01/31 05:28:59;;;;;;;;;;;4.70;99.90;;;;;;6276191;22;19930;-96
2023/01/31 05:31:27;;;;;;;;;;;4.40;99.90;;;;;;6216950;23;19920;-96
2023/01/31 05:34:32;;;;;;;;;;;4.90;99.90;;;;;;6269967;22;20287;-96
2023/01/31 05:37:31;;;;;;;;;;;4.90;99.90;;;;;;6248047;22;19923;-96
2023/01/31 05:40:13;;;;;;;;;;;4.90;99.90;;;;;;6248694;22;19934;-96
2023/01/31 05:45:52;;;;;;;;;;;4.10;99.90;;;;;;6276582;22;19974;-96
2023/01/31 05:48:55;;;;;;;;;;;5.10;99.90;;;;;;6249732;22;19926;-96
2023/01/31 05:51:57;;;;;;;;;;;4.90;99.90;;;;;;6224034;22;19958;-95
2023/01/31 05:54:37;;;;;;;;;;;4.70;99.90;;;;;;6271916;22;19973;-95
2023/01/31 06:00:47;;;;;;;;;;;6.20;99.90;;;;;;6230088;22;19914;-96
2023/01/31 06:03:18;;;;;;;;;;;5.00;99.90;;;;;;6221121;22;20328;-96
2023/01/31 06:06:26;;;;;;;;;;;5.00;99.90;;;;;;6275320;22;20243;-95
2023/01/31 06:08:54;;;;;;;;;;;4.80;99.90;;;;;;6103909;23;19921;-95
2023/01/31 06:11:56;;;;;;;;;;;;;;;;;;;;;
2023/01/31 06:14:27;;;;;;;;;;;5.10;99.90;;;;;;6128415;23;19920;-96
2023/01/31 06:24:13;;;;;;;;;;;5.90;99.90;;;;;;6054397;23;19963;-96
2023/01/31 06:26:44;;;;;;;;;;;6.20;99.90;;;;;;6130029;23;19927;-96
2023/01/31 06:29:25;;;;;;;;;;;5.20;99.90;;;;;;6131452;23;20379;-95
2023/01/31 06:35:28;;;;;;;;;;;5.30;99.90;;;;;;6127664;23;19925;-96
2023/01/31 06:38:03;;;;;;;;;;;5.20;99.90;;;;;;6129777;23;20362;-96
2023/01/31 06:40:59;;;;;;;;;;;5.20;99.90;;;;;;6154678;23;19915;-96
2023/01/31 06:43:33;;;;;;;;;;;4.40;99.90;;;;;;6128908;23;19999;-96
2023/01/31 06:50:05;;;;;;;;;;;4.90;99.90;;;;;;6095494;23;20356;-94
2023/01/31 06:55:55;;;;;;;;;;;6.10;99.90;;;;;;6125672;23;19967;-96
2023/01/31 06:58:29;;;;;;;;;;;4.90;99.90;;;;;;6112428;23;19924;-96
2023/01/31 07:01:26;;;;;;;;;;;;;;;;;;;;;
2023/01/31 07:03:43;;;;;;;;;;;5.20;99.90;;;;;;6241822;23;20008;-96
2023/01/31 07:06:38;;;;;;;;;;;4.80;99.90;;;;;;6225821;23;19987;-96
2023/01/31 07:12:30;;;;;;;;;;;5.30;99.90;;;;;;6156861;23;19926;-96
2023/01/31 07:15:27;;;;;;;;;;;5.30;99.90;;;;;;6197140;23;19926;-96
2023/01/31 07:18:50;;;;;;;;;;;5.20;99.90;;;;;;6157411;23;19924;-96
2023/01/31 07:20:51;;;;;;;;;;;5.00;99.90;;;;;;6199957;23;19951;-96
2023/01/31 07:27:07;;;;;;;;;;;5.30;99.90;;;;;;6215415;22;19986;-95
2023/01/31 07:29:37;;;;;;;;;;;4.80;99.90;;;;;;6251636;22;19919;-96
2023/01/31 07:36:25;;;;;;;;;;;5.40;99.90;;;;;;6195469;22;19919;-96
2023/01/31 07:39:37;;;;;;;;;;;4.40;99.90;;;;;;6215667;22;19919;-95
2023/01/31 09:16:47;;;;;;;;;;;;;;;;;;;;;
2023/01/31 09:45:25;;;;;;;;;;;6.40;99.90;;;;;;5924017;24;19930;-86
2023/01/31 09:49:19;;;;;;;;;;;;;;;;;;;;;
2023/01/31 09:59:01;;;;;;;;;;;7.10;99.90;;;;;;5947872;23;19923;-86
2023/01/31 10:30:37;;;;;;;;;;;;;;;;;;;;;
2023/01/31 11:01:38;;;;;;;;;;;;;;;;;;;;;
2023/01/31 17:48:19;;;;;;;;;;;5.90;99.90;;;;;;6281587;22;21228;-95
2023/01/31 17:51:45;;;;;;;;;;;;;;;;;;;;;
2023/01/31 17:55:14;;;;;;;;;;;6.40;99.90;;;;;;6241572;22;20318;-94
2023/01/31 18:01:12;;;;;;;;;;;;;;;;;;;;;
2023/01/31 18:07:41;;;;;;;;;;;5.40;99.90;;;;;;6249008;22;20336;-96
2023/01/31 18:11:04;;;;;;;;;;;;;;;;;;;;;
2023/01/31 18:14:12;;;;;;;;;;;;;;;;;;;;;
2023/01/31 18:17:42;;;;;;;;;;;5.00;99.90;;;;;;6199133;22;19943;-95
2023/01/31 18:23:39;;;;;;;;;;;5.60;99.90;;;;;;6152558;22;19973;-95
2023/01/31 18:29:25;;;;;;;;;;;5.60;99.90;;;;;;6174356;22;19923;-94
2023/01/31 18:32:12;;;;;;;;;;;5.60;99.90;;;;;;6225082;22;20328;-95
2023/01/31 18:34:59;;;;;;;;;;;5.60;99.90;;;;;;6187590;23;20003;-94
2023/01/31 18:41:10;;;;;;;;;;;5.40;99.90;;;;;;6130711;22;19957;-94
2023/01/31 18:47:22;;;;;;;;;;;;;;;;;;;;;
2023/01/31 18:49:57;;;;;;;;;;;6.30;99.90;;;;;;6268941;22;20334;-95
2023/01/31 18:52:59;;;;;;;;;;;5.60;99.90;;;;;;6250993;22;19919;-94
2023/01/31 18:55:40;;;;;;;;;;;6.30;99.90;;;;;;6234812;22;19926;-94
2023/01/31 18:58:59;;;;;;;;;;;5.50;99.90;;;;;;6253355;22;20335;-95
2023/01/31 19:01:55;;;;;;;;;;;5.60;99.90;;;;;;6182782;22;19920;-94
2023/01/31 19:05:01;;;;;;;;;;;;;;;;;;;;;
2023/01/31 19:07:56;;;;;;;;;;;5.60;99.90;;;;;;6278355;22;19919;-93
2023/01/31 19:10:52;;;;;;;;;;;;;;;;;;;;;
2023/01/31 19:16:56;;;;;;;;;;;5.70;99.90;;;;;;6274325;22;19919;-95
2023/01/31 19:27:11;;;;;;;;;;;5.40;99.90;;;;;;6129630;23;20277;-94
2023/01/31 19:30:17;;;;;;;;;;;5.30;99.90;;;;;;6098683;23;19984;-94
2023/01/31 19:37:05;;;;;;;;;;;5.60;99.90;;;;;;6064963;23;19956;-95
2023/01/31 19:43:44;;;;;;;;;;;5.80;99.90;;;;;;5994868;23;19997;-96
2023/01/31 19:50:06;;;;;;;;;;;5.40;99.90;;;;;;6139877;23;19924;-95
2023/01/31 19:52:58;;;;;;;;;;;4.90;99.90;;;;;;6201385;22;19923;-95
2023/01/31 19:56:04;;;;;;;;;;;5.70;99.90;;;;;;6281664;22;19922;-94
2023/01/31 20:02:36;;;;;;;;;;;5.60;99.90;;;;;;6182828;23;19952;-96
2023/01/31 20:05:35;;;;;;;;;;;5.60;99.90;;;;;;6160019;23;19919;-96
2023/01/31 20:08:36;;;;;;;;;;;6.30;99.90;;;;;;6211103;23;20006;-95
2023/01/31 20:11:43;;;;;;;;;;;4.70;99.90;;;;;;6099330;23;19925;-95
2023/01/31 20:18:09;;;;;;;;;;;;;;;;;;;;;
2023/01/31 20:22:02;;;;;;;;;;;;;;;;;;;;;
2023/01/31 20:28:17;;;;;;;;;;;4.60;99.90;;;;;;6052453;23;20243;-95
2023/01/31 20:38:16;;;;;;;;;;;5.30;99.90;;;;;;6017274;23;20325;-95
2023/01/31 20:41:13;;;;;;;;;;;5.40;99.90;;;;;;6097592;23;20061;-95
2023/01/31 20:44:24;;;;;;;;;;;4.70;99.90;;;;;;6210449;23;20353;-94
2023/01/31 20:46:52;;;;;;;;;;;4.60;99.90;;;;;;6185597;23;19926;-94
2023/01/31 20:49:52;;;;;;;;;;;5.10;99.90;;;;;;6160840;23;19927;-94
2023/01/31 20:52:52;;;;;;;;;;;;;;;;;;;;;
2023/01/31 20:56:01;;;;;;;;;;;5.50;99.90;;;;;;6184619;23;20371;-95
2023/01/31 20:58:51;;;;;;;;;;;5.50;99.90;;;;;;6210145;23;20405;-94
2023/01/31 21:05:09;;;;;;;;;;;5.50;99.90;;;;;;6185583;23;19924;-95
2023/01/31 21:11:46;;;;;;;;;;;4.80;99.90;;;;;;6224344;22;19927;-95
2023/01/31 21:18:25;;;;;;;;;;;5.00;99.90;;;;;;6229227;22;19990;-95
2023/01/31 21:30:18;;;;;;;;;;;;;;;;;;;;;
2023/01/31 21:57:30;;;;;;;;;;;5.40;99.90;;;;;;6275383;22;19919;-93
2023/01/31 22:00:46;;;;;;;;;;;;;;;;;;;;;
2023/01/31 22:03:15;;;;;;;;;;;4.90;99.90;;;;;;6223427;22;19955;-93
2023/01/31 22:06:10;;;;;;;;;;;5.40;99.90;;;;;;6249220;22;19962;-93
2023/01/31 22:08:48;;;;;;;;;;;6.30;99.90;;;;;;6123787;22;19924;-93
2023/01/31 22:11:54;;;;;;;;;;;5.50;99.90;;;;;;6251267;22;19919;-92
2023/01/31 22:14:29;;;;;;;;;;;5.50;99.90;;;;;;6246732;22;19923;-94
2023/01/31 22:18:17;;;;;;;;;;;5.50;99.90;;;;;;6250663;22;20394;-93
2023/01/31 22:20:15;;;;;;;;;;;5.50;99.90;;;;;;6258266;22;20328;-93
2023/01/31 22:22:53;;;;;;;;;;;5.50;99.90;;;;;;6249135;22;19923;-93
2023/01/31 22:25:34;;;;;;;;;;;6.00;99.90;;;;;;6249182;22;19963;-93
2023/01/31 22:28:41;;;;;;;;;;;5.60;99.90;;;;;;6274180;22;20003;-92
2023/01/31 22:31:39;;;;;;;;;;;4.90;99.90;;;;;;6249565;22;20376;-92
2023/01/31 22:34:58;;;;;;;;;;;5.70;99.90;;;;;;6221926;22;20319;-93
2023/01/31 22:37:32;;;;;;;;;;;6.50;99.90;;;;;;6096959;23;20297;-92
2023/01/31 22:40:17;;;;;;;;;;;5.60;99.90;;;;;;6106686;23;19920;-94
2023/01/31 22:43:14;;;;;;;;;;;5.80;99.90;;;;;;6234571;22;19950;-92
2023/01/31 22:46:18;;;;;;;;;;;6.30;99.90;;;;;;6269820;22;19942;-92
2023/01/31 22:48:54;;;;;;;;;;;5.90;99.90;;;;;;6245235;22;20324;-92
2023/01/31 22:51:35;;;;;;;;;;;5.80;99.90;;;;;;6224366;22;19924;-92
2023/01/31 22:55:21;;;;;;;;;;;;;;;;;;;;;
2023/01/31 22:57:26;;;;;;;;;;;5.80;99.90;;;;;;6232042;22;20390;-93
2023/01/31 23:00:27;;;;;;;;;;;;;;;;;;;;;
2023/01/31 23:03:10;;;;;;;;;;;6.50;99.90;;;;;;6244815;22;20252;-93
2023/01/31 23:05:42;;;;;;;;;;;6.20;99.90;;;;;;6216017;22;19920;-93
2023/01/31 23:08:16;;;;;;;;;;;5.80;99.90;;;;;;6226052;22;19965;-92
2023/01/31 23:10:54;;;;;;;;;;;5.80;99.90;;;;;;6218507;22;20378;-93
2023/01/31 23:13:22;;;;;;;;;;;5.80;99.90;;;;;;6225544;22;19959;-93
2023/01/31 23:16:29;;;;;;;;;;;;;;;;;;;;;
2023/01/31 23:19:05;;;;;;;;;;;5.20;99.90;;;;;;6251181;22;19972;-92
2023/01/31 23:21:55;;;;;;;;;;;5.20;99.90;;;;;;6256367;22;20225;-93
2023/01/31 23:24:42;;;;;;;;;;;5.80;99.90;;;;;;6225293;22;19919;-93
2023/01/31 23:27:08;;;;;;;;;;;6.60;99.90;;;;;;6225419;22;19931;-93
2023/01/31 23:33:19;;;;;;;;;;;5.90;99.90;;;;;;6114691;22;19926;-93
2023/01/31 23:36:30;;;;;;;;;;;6.90;99.90;;;;;;6225674;22;20340;-92
2023/01/31 23:38:42;;;;;;;;;;;7.10;99.90;;;;;;6236094;22;19969;-93
2023/01/31 23:41:24;;;;;;;;;;;5.80;99.90;;;;;;6218203;22;20244;-92
2023/01/31 23:44:13;;;;;;;;;;;6.50;99.90;;;;;;6252327;22;19923;-93
2023/01/31 23:46:48;;;;;;;;;;;5.80;99.90;;;;;;6250962;22;20336;-93
2023/01/31 23:49:27;;;;;;;;;;;5.20;99.90;;;;;;6249410;22;19924;-93
2023/01/31 23:53:09;;;;;;;;;;;5.70;99.90;;;;;;6250681;22;20354;-93
2023/01/31 23:55:22;;;;;;;;;;;5.80;99.90;;;;;;6265603;22;19920;-92
2023/01/31 23:58:15;;;;;;;;;;;5.80;99.90;;;;;;6276764;22;19927;-92
